createdAt,value
2018-08-10T00:02:20.750Z,74.56
2018-08-10T00:04:48.667Z,75.35
2018-08-10T00:07:16.166Z,75.87
2018-08-10T00:09:43.727Z,76.58
2018-08-10T00:12:11.250Z,76.77
2018-08-10T00:14:38.883Z,76.62
2018-08-10T00:17:06.434Z,76.75
2018-08-10T00:19:33.897Z,76.04
2018-08-10T00:22:01.456Z,76.64
2018-08-10T00:24:28.953Z,76.14
2018-08-10T00:26:56.442Z,76.79
2018-08-10T00:29:24.050Z,76.86
2018-08-10T00:31:51.543Z,76.41
2018-08-10T00:34:19.066Z,76.18
2018-08-10T00:36:46.578Z,74.98
2018-08-10T00:39:14.576Z,75.25
2018-08-10T00:41:42.906Z,75.12
2018-08-10T00:44:10.450Z,74.90
2018-08-10T00:46:38.067Z,74.86
2018-08-10T00:49:05.626Z,74.58
2018-08-10T00:51:33.163Z,74.83
2018-08-10T00:54:00.670Z,75.10
2018-08-10T00:56:28.420Z,75.43
2018-08-10T00:58:55.899Z,74.86
2018-08-10T01:01:23.439Z,74.54
2018-08-10T01:03:50.986Z,75.03
2018-08-10T01:06:18.469Z,75.31
2018-08-10T01:08:45.998Z,75.61
2018-08-10T01:11:13.534Z,75.17
2018-08-10T01:13:41.146Z,76.17
2018-08-10T01:16:08.623Z,76.16
2018-08-10T01:18:36.278Z,75.46
2018-08-10T01:21:03.918Z,76.49
2018-08-10T01:23:31.433Z,76.27
2018-08-10T01:25:58.958Z,75.67
2018-08-10T01:28:26.513Z,75.65
2018-08-10T01:30:54.447Z,75.89
2018-08-10T01:33:21.922Z,75.15
2018-08-10T01:35:49.510Z,74.64
2018-08-10T01:38:17.097Z,74.83
2018-08-10T01:40:45.159Z,74.66
2018-08-10T01:43:12.651Z,74.55
2018-08-10T01:45:40.131Z,74.67
2018-08-10T01:48:07.682Z,73.28
2018-08-10T01:50:35.210Z,72.79
2018-08-10T01:53:02.713Z,72.58
2018-08-10T01:55:30.255Z,72.87
2018-08-10T01:57:57.743Z,71.88
2018-08-10T02:00:25.274Z,71.91
2018-08-10T02:02:52.785Z,72.16
2018-08-10T02:05:20.267Z,71.90
2018-08-10T02:07:47.786Z,72.07
2018-08-10T02:10:16.621Z,71.30
2018-08-10T02:12:45.221Z,71.19
2018-08-10T02:15:14.398Z,71.49
2018-08-10T02:17:41.928Z,71.86
2018-08-10T02:20:11.344Z,71.72
2018-08-10T02:22:38.990Z,71.79
2018-08-10T02:25:07.701Z,71.24
2018-08-10T02:27:35.530Z,70.88
2018-08-10T02:30:03.590Z,71.28
2018-08-10T02:32:31.110Z,70.55
2018-08-10T02:34:58.580Z,69.89
2018-08-10T02:37:26.079Z,70.15
2018-08-10T02:39:53.671Z,70.42
2018-08-10T02:42:21.139Z,69.93
2018-08-10T02:44:48.618Z,70.23
2018-08-10T02:47:20.659Z,70.13
2018-08-10T02:49:48.117Z,70.09
2018-08-10T02:52:15.973Z,69.83
2018-08-10T02:54:43.498Z,69.72
2018-08-10T02:57:11.002Z,70.10
2018-08-10T02:59:38.493Z,70.13
2018-08-10T03:02:05.958Z,70.14
2018-08-10T03:04:33.486Z,69.99
2018-08-10T03:07:01.121Z,70.44
2018-08-10T03:09:28.602Z,70.03
2018-08-10T03:11:56.092Z,70.30
2018-08-10T03:14:23.673Z,70.72
2018-08-10T03:16:51.742Z,70.86
2018-08-10T03:19:19.264Z,70.74
2018-08-10T03:21:46.750Z,70.68
2018-08-10T03:24:14.265Z,70.21
2018-08-10T03:26:41.743Z,70.79
2018-08-10T03:29:09.334Z,70.43
2018-08-10T03:31:36.997Z,70.16
2018-08-10T03:34:04.741Z,70.21
2018-08-10T03:36:32.346Z,70.41
2018-08-10T03:38:59.817Z,70.12
2018-08-10T03:41:27.322Z,69.75
2018-08-10T03:43:54.808Z,69.86
2018-08-10T03:46:22.328Z,70.97
2018-08-10T03:48:49.906Z,70.53
2018-08-10T03:51:17.452Z,70.69
2018-08-10T03:53:45.102Z,70.59
2018-08-10T03:56:12.624Z,69.58
2018-08-10T03:58:40.099Z,69.16
2018-08-10T04:01:07.606Z,69.27
2018-08-10T04:03:35.110Z,69.08
2018-08-10T04:06:02.762Z,68.74
2018-08-10T04:08:30.298Z,68.75
2018-08-10T04:10:57.971Z,68.94
2018-08-10T04:13:25.443Z,68.55
2018-08-10T04:15:53.033Z,69.22
2018-08-10T04:18:20.529Z,68.85
2018-08-10T04:20:48.142Z,68.79
2018-08-10T04:23:15.702Z,69.19
2018-08-10T04:25:43.217Z,69.20
2018-08-10T04:28:10.979Z,68.98
2018-08-10T04:30:38.455Z,69.14
2018-08-10T04:33:06.490Z,69.40
2018-08-10T04:35:34.073Z,68.57
2018-08-10T04:38:01.670Z,68.36
2018-08-10T04:40:29.691Z,68.76
2018-08-10T04:42:57.171Z,69.18
2018-08-10T04:45:24.766Z,69.21
2018-08-10T04:47:56.846Z,69.60
2018-08-10T04:50:24.646Z,69.41
2018-08-10T04:52:52.224Z,69.50
2018-08-10T04:55:19.834Z,69.44
2018-08-10T04:57:47.308Z,69.20
2018-08-10T05:00:14.793Z,69.10
2018-08-10T05:02:42.458Z,69.49
2018-08-10T05:05:10.532Z,69.91
2018-08-10T05:07:38.653Z,69.34
2018-08-10T05:10:06.451Z,69.63
2018-08-10T05:12:33.932Z,69.86
2018-08-10T05:15:01.406Z,69.64
2018-08-10T05:17:29.122Z,69.78
2018-08-10T05:19:56.605Z,69.46
2018-08-10T05:22:24.090Z,69.53
2018-08-10T05:24:51.843Z,69.99
2018-08-10T05:27:19.334Z,70.09
2018-08-10T05:29:46.842Z,70.11
2018-08-10T05:32:14.690Z,70.25
2018-08-10T05:34:42.172Z,69.99
2018-08-10T05:37:09.788Z,69.83
2018-08-10T05:39:40.537Z,69.71
2018-08-10T05:42:09.679Z,69.18
2018-08-10T05:44:37.222Z,69.12
2018-08-10T05:47:04.724Z,68.89
2018-08-10T05:49:32.269Z,68.28
2018-08-10T05:51:59.901Z,67.93
2018-08-10T05:54:27.405Z,67.34
2018-08-10T05:56:54.873Z,65.88
2018-08-10T05:59:22.419Z,64.40
2018-08-10T06:01:50.035Z,63.68
2018-08-10T06:04:17.514Z,61.95
2018-08-10T06:06:45.045Z,60.49
2018-08-10T06:09:13.871Z,59.69
2018-08-10T06:11:42.115Z,58.33
2018-08-10T06:14:09.583Z,58.67
2018-08-10T06:16:37.134Z,56.74
2018-08-10T06:19:04.706Z,56.21
2018-08-10T06:21:32.246Z,56.05
2018-08-10T06:23:59.762Z,54.81
2018-08-10T06:26:27.238Z,54.27
2018-08-10T06:28:54.827Z,53.09
2018-08-10T06:31:22.334Z,52.27
2018-08-10T06:33:49.864Z,53.42
2018-08-10T06:36:17.316Z,52.62
2018-08-10T06:38:44.787Z,51.64
2018-08-10T06:41:12.339Z,50.21
2018-08-10T06:43:39.842Z,50.43
2018-08-10T06:46:07.590Z,50.64
2018-08-10T06:48:35.050Z,50.16
2018-08-10T06:51:02.571Z,52.27
2018-08-10T06:53:30.247Z,52.18
2018-08-10T06:55:57.971Z,51.31
2018-08-10T06:58:25.600Z,49.14
2018-08-10T07:00:53.200Z,46.74
2018-08-10T07:03:20.697Z,47.06
2018-08-10T07:05:48.271Z,47.10
2018-08-10T07:08:15.778Z,47.17
2018-08-10T07:10:43.289Z,48.08
2018-08-10T07:13:10.867Z,48.43
2018-08-10T07:15:38.298Z,46.52
2018-08-10T07:18:05.853Z,44.64
2018-08-10T07:20:33.330Z,43.40
2018-08-10T07:23:00.803Z,42.01
2018-08-10T07:25:28.347Z,38.96
2018-08-10T07:27:55.933Z,39.20
2018-08-10T07:30:23.458Z,40.50
2018-08-10T07:32:50.940Z,39.79
2018-08-10T07:35:18.435Z,38.99
2018-08-10T07:37:45.945Z,37.52
2018-08-10T07:40:13.429Z,37.04
2018-08-10T07:42:41.250Z,35.69
2018-08-10T07:45:08.832Z,35.77
2018-08-10T07:47:36.303Z,33.47
2018-08-10T07:50:04.340Z,32.72
2018-08-10T07:52:31.858Z,32.37
2018-08-10T07:54:59.383Z,33.28
2018-08-10T07:57:26.965Z,33.21
2018-08-10T07:59:54.491Z,31.53
2018-08-10T08:02:21.970Z,30.86
2018-08-10T08:04:49.462Z,28.45
2018-08-10T08:07:16.998Z,29.38
2018-08-10T08:09:44.503Z,29.46
2018-08-10T08:12:12.050Z,28.94
2018-08-10T08:14:39.530Z,27.07
2018-08-10T08:17:07.482Z,26.27
2018-08-10T08:19:35.198Z,27.06
2018-08-10T08:22:03.470Z,29.31
2018-08-10T08:24:30.965Z,28.21
2018-08-10T08:26:58.527Z,25.36
2018-08-10T08:29:26.079Z,25.42
2018-08-10T08:31:53.965Z,25.48
2018-08-10T08:34:21.774Z,25.95
2018-08-10T08:36:49.290Z,25.65
2018-08-10T08:39:28.280Z,25.44
2018-08-10T08:41:55.804Z,24.28
2018-08-10T08:44:30.689Z,22.83
2018-08-10T08:46:58.228Z,21.93
2018-08-10T08:49:25.726Z,21.22
2018-08-10T08:51:53.294Z,21.83
2018-08-10T08:56:28.876Z,19.86
2018-08-10T08:58:56.451Z,19.47
2018-08-10T09:01:23.947Z,19.45
2018-08-10T09:05:08.747Z,18.59
2018-08-10T09:07:36.729Z,19.14
2018-08-10T09:10:48.306Z,19.46
2018-08-10T09:13:15.881Z,17.90
2018-08-10T09:15:43.443Z,19.91
2018-08-10T09:18:10.978Z,20.22
2018-08-10T09:20:38.814Z,18.70
2018-08-10T09:23:06.822Z,19.04
2018-08-10T09:25:34.380Z,21.06
2018-08-10T09:28:01.922Z,20.94
2018-08-10T09:30:29.526Z,22.15
2018-08-10T09:32:57.087Z,22.92
2018-08-10T09:35:24.586Z,22.78
2018-08-10T09:37:52.124Z,22.17
2018-08-10T09:40:20.415Z,22.61
2018-08-10T09:42:48.004Z,24.12
2018-08-10T09:45:16.034Z,24.31
2018-08-10T09:47:44.618Z,22.05
2018-08-10T09:50:12.694Z,22.47
2018-08-10T09:52:40.594Z,21.28
2018-08-10T09:55:17.354Z,20.08
2018-08-10T09:57:44.871Z,18.55
2018-08-10T10:00:18.190Z,17.86
2018-08-10T10:02:50.214Z,18.03
2018-08-10T10:05:17.778Z,19.69
2018-08-10T10:07:45.730Z,19.46
2018-08-10T10:10:13.274Z,18.89
2018-08-10T10:12:40.796Z,19.55
2018-08-10T10:15:08.411Z,22.24
2018-08-10T10:17:36.236Z,24.48
2018-08-10T10:20:04.527Z,23.95
2018-08-10T10:22:32.082Z,24.78
2018-08-10T10:24:59.622Z,22.98
2018-08-10T10:27:27.550Z,24.57
2018-08-10T10:29:55.380Z,25.39
2018-08-10T10:32:23.027Z,25.74
2018-08-10T10:34:50.522Z,25.99
2018-08-10T10:37:18.091Z,25.93
2018-08-10T10:39:45.579Z,26.25
2018-08-10T10:42:13.204Z,25.33
2018-08-10T10:44:40.766Z,24.90
2018-08-10T10:47:08.605Z,24.78
2018-08-10T10:49:36.112Z,24.46
2018-08-10T10:52:03.634Z,21.60
2018-08-10T10:54:31.558Z,22.21
2018-08-10T10:56:59.124Z,21.31
2018-08-10T10:59:26.614Z,21.69
2018-08-10T11:01:54.454Z,20.76
2018-08-10T11:04:21.949Z,22.37
2018-08-10T11:06:49.478Z,21.60
2018-08-10T11:09:16.995Z,21.60
2018-08-10T11:11:44.552Z,20.74
2018-08-10T11:14:12.064Z,21.04
2018-08-10T11:16:39.562Z,21.06
2018-08-10T11:19:07.098Z,21.10
2018-08-10T11:21:34.606Z,22.95
2018-08-10T11:24:02.162Z,23.28
2018-08-10T11:26:29.737Z,23.51
2018-08-10T11:28:57.383Z,23.97
2018-08-10T11:31:24.895Z,23.99
2018-08-10T11:33:52.383Z,24.33
2018-08-10T11:36:19.917Z,23.87
2018-08-10T11:38:47.398Z,23.82
2018-08-10T11:41:15.445Z,23.94
2018-08-10T11:43:42.960Z,23.62
2018-08-10T11:46:10.464Z,25.43
2018-08-10T11:48:38.066Z,25.58
2018-08-10T11:51:05.605Z,25.78
2018-08-10T11:53:33.111Z,26.34
2018-08-10T11:56:00.646Z,26.92
2018-08-10T11:58:28.214Z,26.15
2018-08-10T12:00:55.806Z,26.19
2018-08-10T12:03:23.388Z,26.69
2018-08-10T12:05:50.967Z,26.42
2018-08-10T12:08:18.499Z,26.13
2018-08-10T12:10:46.042Z,26.19
2018-08-10T12:13:13.562Z,26.26
2018-08-10T12:15:41.094Z,26.35
2018-08-10T12:18:08.669Z,24.59
2018-08-10T12:20:36.260Z,25.06
2018-08-10T12:23:03.735Z,25.30
2018-08-10T12:25:31.329Z,25.61
2018-08-10T12:27:58.807Z,26.23
2018-08-10T12:30:26.431Z,27.18
2018-08-10T12:32:53.922Z,27.54
2018-08-10T12:35:21.482Z,28.22
2018-08-10T12:37:49.026Z,28.17
2018-08-10T12:40:16.519Z,28.67
2018-08-10T12:42:44.102Z,28.49
2018-08-10T12:45:11.598Z,28.89
2018-08-10T12:47:39.233Z,29.10
2018-08-10T12:50:07.020Z,29.11
2018-08-10T12:52:34.653Z,28.52
2018-08-10T12:55:02.204Z,29.48
2018-08-10T12:57:29.788Z,29.01
2018-08-10T12:59:57.362Z,28.68
2018-08-10T13:02:25.006Z,28.72
2018-08-10T13:04:52.557Z,28.55
2018-08-10T13:07:20.034Z,28.75
2018-08-10T13:09:47.547Z,29.11
2018-08-10T13:12:15.556Z,28.21
2018-08-10T13:14:43.085Z,28.93
2018-08-10T13:17:10.634Z,28.91
2018-08-10T13:19:38.231Z,29.27
2018-08-10T13:22:05.750Z,29.33
2018-08-10T13:24:33.263Z,28.69
2018-08-10T13:27:00.770Z,29.16
2018-08-10T13:29:28.270Z,29.24
2018-08-10T13:31:56.801Z,29.59
2018-08-10T13:34:24.298Z,29.19
2018-08-10T13:36:51.834Z,29.54
2018-08-10T13:39:19.370Z,28.53
2018-08-10T13:41:47.693Z,29.12
2018-08-10T13:44:15.306Z,29.66
2018-08-10T13:46:42.810Z,28.54
2018-08-10T13:49:10.316Z,28.73
2018-08-10T13:51:37.863Z,30.04
2018-08-10T13:54:05.369Z,30.67
2018-08-10T13:56:33.226Z,32.09
2018-08-10T13:59:00.765Z,29.94
2018-08-10T14:01:28.269Z,28.82
2018-08-10T14:03:55.825Z,29.05
2018-08-10T14:06:23.397Z,30.20
2018-08-10T14:08:50.963Z,31.58
2018-08-10T14:11:18.539Z,30.41
2018-08-10T14:13:46.374Z,30.28
2018-08-10T14:16:13.885Z,29.83
2018-08-10T14:18:41.362Z,29.99
2018-08-10T14:21:09.274Z,30.08
2018-08-10T14:23:36.833Z,30.79
2018-08-10T14:26:04.650Z,29.38
2018-08-10T14:28:32.214Z,29.45
2018-08-10T14:30:59.731Z,29.67
2018-08-10T14:33:27.322Z,29.56
2018-08-10T14:35:54.886Z,29.19
2018-08-10T14:38:22.455Z,29.80
2018-08-10T14:40:49.947Z,30.08
2018-08-10T14:43:17.471Z,30.25
2018-08-10T14:45:45.022Z,30.48
2018-08-10T14:48:12.528Z,30.50
2018-08-10T14:50:40.071Z,30.94
2018-08-10T14:53:07.626Z,30.96
2018-08-10T14:55:35.166Z,29.23
2018-08-10T14:58:03.070Z,29.91
2018-08-10T15:00:30.580Z,30.23
2018-08-10T15:02:58.107Z,29.83
2018-08-10T15:05:25.621Z,30.14
2018-08-10T15:07:53.135Z,27.83
2018-08-10T15:10:20.630Z,29.09
2018-08-10T15:12:48.551Z,30.38
2018-08-10T15:15:16.846Z,30.42
2018-08-10T15:17:44.819Z,30.34
2018-08-10T15:20:14.622Z,29.68
2018-08-10T15:22:42.421Z,29.36
2018-08-10T15:25:10.381Z,28.87
2018-08-10T15:27:38.249Z,29.55
2018-08-10T15:30:06.925Z,28.76
2018-08-10T15:32:34.418Z,29.62
2018-08-10T15:35:01.953Z,29.91
2018-08-10T15:37:29.520Z,30.07
2018-08-10T15:39:57.017Z,30.62
2018-08-10T15:42:24.955Z,30.29
2018-08-10T15:44:52.421Z,30.00
2018-08-10T15:47:19.965Z,29.76
2018-08-10T15:49:47.541Z,29.33
2018-08-10T15:52:14.989Z,28.91
2018-08-10T15:54:42.486Z,30.77
2018-08-10T15:57:09.998Z,31.03
2018-08-10T15:59:37.607Z,31.13
2018-08-10T16:02:05.307Z,31.41
2018-08-10T16:04:34.722Z,32.14
2018-08-10T16:07:02.281Z,31.45
2018-08-10T16:09:29.828Z,31.02
2018-08-10T16:11:57.613Z,30.54
2018-08-10T16:14:25.178Z,30.55
2018-08-10T16:16:52.685Z,30.99
2018-08-10T16:19:20.586Z,30.76
2018-08-10T16:21:48.089Z,31.39
2018-08-10T16:24:15.623Z,30.75
2018-08-10T16:26:43.457Z,31.19
2018-08-10T16:29:11.025Z,31.60
2018-08-10T16:31:38.531Z,31.73
2018-08-10T16:34:06.602Z,31.28
2018-08-10T16:36:34.139Z,32.34
2018-08-10T16:39:01.683Z,32.58
2018-08-10T16:41:29.349Z,32.60
2018-08-10T16:43:57.143Z,32.36
2018-08-10T16:46:24.638Z,33.44
2018-08-10T16:48:52.205Z,32.77
2018-08-10T16:51:19.739Z,33.13
2018-08-10T16:53:47.277Z,33.37
2018-08-10T16:56:14.818Z,33.47
2018-08-10T16:58:42.346Z,33.42
2018-08-10T17:01:09.931Z,34.58
2018-08-10T17:03:37.426Z,34.15
2018-08-10T17:06:04.973Z,34.66
2018-08-10T17:08:32.523Z,34.42
2018-08-10T17:11:00.060Z,33.66
2018-08-10T17:13:27.566Z,34.02
2018-08-10T17:15:55.148Z,34.96
2018-08-10T17:18:22.843Z,34.46
2018-08-10T17:20:50.355Z,34.16
2018-08-10T17:23:18.427Z,34.87
2018-08-10T17:25:46.008Z,34.80
2018-08-10T17:28:13.554Z,34.97
2018-08-10T17:30:41.154Z,35.03
2018-08-10T17:33:08.734Z,34.20
2018-08-10T17:35:36.269Z,33.67
2018-08-10T17:38:03.997Z,33.76
2018-08-10T17:40:31.502Z,33.39
2018-08-10T17:42:59.046Z,34.50
2018-08-10T17:45:26.529Z,34.06
2018-08-10T17:47:54.062Z,34.31
2018-08-10T17:50:21.748Z,34.13
2018-08-10T17:52:50.566Z,34.28
2018-08-10T17:55:18.703Z,35.33
2018-08-10T17:57:46.419Z,34.60
2018-08-10T18:00:15.708Z,35.54
2018-08-10T18:02:43.469Z,35.73
2018-08-10T18:05:12.634Z,36.09
2018-08-10T18:07:40.423Z,37.82
2018-08-10T18:10:08.243Z,38.18
2018-08-10T18:12:36.338Z,39.29
2018-08-10T18:15:04.510Z,39.13
2018-08-10T18:17:31.999Z,40.17
2018-08-10T18:19:59.522Z,40.25
2018-08-10T18:22:27.323Z,40.25
2018-08-10T18:24:54.862Z,41.32
2018-08-10T18:27:22.533Z,41.35
2018-08-10T18:29:50.317Z,42.24
2018-08-10T18:32:17.954Z,42.55
2018-08-10T18:34:45.430Z,42.42
2018-08-10T18:37:12.972Z,42.84
2018-08-10T18:39:41.634Z,42.82
2018-08-10T18:42:09.172Z,43.38
2018-08-10T18:44:36.672Z,42.53
2018-08-10T18:47:04.219Z,43.21
2018-08-10T18:49:31.719Z,43.14
2018-08-10T18:51:59.387Z,43.07
2018-08-10T18:54:26.915Z,43.75
2018-08-10T18:56:54.436Z,43.58
2018-08-10T18:59:21.950Z,43.85
2018-08-10T19:01:49.541Z,44.55
2018-08-10T19:04:17.110Z,45.33
2018-08-10T19:06:45.776Z,45.34
2018-08-10T19:09:13.288Z,45.21
2018-08-10T19:11:40.926Z,45.42
2018-08-10T19:14:08.543Z,46.08
2018-08-10T19:16:36.113Z,45.25
2018-08-10T19:19:03.671Z,44.90
2018-08-10T19:21:31.318Z,46.27
2018-08-10T19:23:58.843Z,45.82
2018-08-10T19:26:26.412Z,45.79
2018-08-10T19:28:53.898Z,46.90
2018-08-10T19:31:21.431Z,47.44
2018-08-10T19:33:48.943Z,47.24
2018-08-10T19:36:16.495Z,47.37
2018-08-10T19:38:44.097Z,47.56
2018-08-10T19:41:11.702Z,48.36
2018-08-10T19:43:39.243Z,48.74
2018-08-10T19:46:07.109Z,48.85
2018-08-10T19:48:34.737Z,48.58
2018-08-10T19:51:02.207Z,47.92
2018-08-10T19:53:30.072Z,48.88
2018-08-10T19:55:57.604Z,48.89
2018-08-10T19:58:25.116Z,49.76
2018-08-10T20:00:52.654Z,50.14
2018-08-10T20:03:20.147Z,50.62
2018-08-10T20:05:47.705Z,51.86
2018-08-10T20:08:15.272Z,51.48
2018-08-10T20:10:42.833Z,51.55
2018-08-10T20:13:10.394Z,51.55
2018-08-10T20:15:38.027Z,51.73
2018-08-10T20:18:05.494Z,52.23
2018-08-10T20:20:33.063Z,52.94
2018-08-10T20:23:00.675Z,53.13
2018-08-10T20:25:28.262Z,53.65
2018-08-10T20:27:56.770Z,53.68
2018-08-10T20:30:24.306Z,53.86
2018-08-10T20:32:51.794Z,53.78
2018-08-10T20:35:19.668Z,54.26
2018-08-10T20:37:47.388Z,54.42
2018-08-10T20:40:15.818Z,54.92
2018-08-10T20:42:43.520Z,55.29
2018-08-10T20:45:11.102Z,55.56
2018-08-10T20:47:38.637Z,55.62
2018-08-10T20:50:07.590Z,55.48
2018-08-10T20:52:35.068Z,55.23
2018-08-10T20:55:03.056Z,55.82
2018-08-10T20:57:30.711Z,55.71
2018-08-10T20:59:58.220Z,56.22
2018-08-10T21:02:25.786Z,56.60
2018-08-10T21:04:53.287Z,56.05
2018-08-10T21:07:20.786Z,56.65
2018-08-10T21:09:48.298Z,56.89
2018-08-10T21:12:15.819Z,56.92
2018-08-10T21:14:43.392Z,56.44
2018-08-10T21:17:10.890Z,57.22
2018-08-10T21:19:38.444Z,57.19
2018-08-10T21:22:06.053Z,56.68
2018-08-10T21:24:33.558Z,57.73
2018-08-10T21:27:01.171Z,57.69
2018-08-10T21:29:28.719Z,56.90
2018-08-10T21:31:56.236Z,57.32
2018-08-10T21:34:23.803Z,57.45
2018-08-10T21:36:51.362Z,58.18
2018-08-10T21:39:18.913Z,57.75
2018-08-10T21:41:46.761Z,58.94
2018-08-10T21:44:14.350Z,59.25
2018-08-10T21:46:41.906Z,59.58
2018-08-10T21:49:09.507Z,59.64
2018-08-10T21:51:37.101Z,59.36
2018-08-10T21:54:04.625Z,59.04
2018-08-10T21:56:32.204Z,58.92
2018-08-10T21:59:00.971Z,59.61
2018-08-10T22:01:28.510Z,59.56
2018-08-10T22:03:56.098Z,59.33
2018-08-10T22:06:24.921Z,59.20
2018-08-10T22:08:52.516Z,59.63
2018-08-10T22:11:20.061Z,59.52
2018-08-10T22:13:53.304Z,59.68
2018-08-10T22:16:26.576Z,59.86
2018-08-10T22:19:26.729Z,60.18
2018-08-10T22:21:54.250Z,60.51
2018-08-10T22:24:21.781Z,61.01
2018-08-10T22:26:49.362Z,61.41
2018-08-10T22:29:16.915Z,61.53
2018-08-10T22:31:44.738Z,61.07
2018-08-10T22:34:12.314Z,61.65
2018-08-10T22:36:39.866Z,61.21
2018-08-10T22:39:08.237Z,61.56
2018-08-10T22:41:36.246Z,61.50
2018-08-10T22:44:03.868Z,61.29
2018-08-10T22:46:31.452Z,61.28
2018-08-10T22:48:58.997Z,61.17
2018-08-10T22:51:26.846Z,61.14
2018-08-10T22:53:54.407Z,60.34
2018-08-10T22:56:21.973Z,60.61
2018-08-10T22:58:50.543Z,61.04
2018-08-10T23:01:18.265Z,60.54
2018-08-10T23:03:45.838Z,60.55
2018-08-10T23:06:13.537Z,60.08
2018-08-10T23:08:41.104Z,59.71
2018-08-10T23:11:08.630Z,59.98
2018-08-10T23:13:36.189Z,59.95
2018-08-10T23:16:03.790Z,60.25
2018-08-10T23:18:31.343Z,60.29
2018-08-10T23:20:58.883Z,60.67
2018-08-10T23:23:26.493Z,60.51
2018-08-10T23:25:54.079Z,60.91
2018-08-10T23:28:21.963Z,61.33
2018-08-10T23:30:49.482Z,61.67
2018-08-10T23:33:17.013Z,61.62
2018-08-10T23:35:44.554Z,61.82
2018-08-10T23:38:12.110Z,62.69
2018-08-10T23:40:39.662Z,62.02
2018-08-10T23:43:07.244Z,61.93
2018-08-10T23:45:34.864Z,62.13
2018-08-10T23:48:02.441Z,62.85
2018-08-10T23:50:30.011Z,62.88
2018-08-10T23:52:57.844Z,63.39
2018-08-10T23:55:25.393Z,63.98
2018-08-10T23:57:52.930Z,63.77
